ロンドン/ヒースロー の空港の天気 - METARとTAF

ロンドン・ヒースロー空港 ( EGLL / LHR ) - イギリス ロンドン
飛行場実況気象(Metar)
観測時間02/17 14:50 GMT (02/17 14:50 UTC)
風向・風速南南西 6m/s
視程10km以上
天気現象
全天の8割程度の雲 雲底高度 790m
気温14℃
湿度67%
気圧1014hPa
METAREGLL 171450Z AUTO 21011KT 180V250 9999 BKN026 14/08 Q1014
過去の天気等 Google飛行場航空写真 Wunderground天気予報

過去48時間のMETAR

飛行場予報(TAF)
発表時間: 2/17 10:50 GMT (2/17 10:50 UTC)
予報対象時間: 17日12時 GMT ~ 18日18時 GMT
風向・風速南南西 4m/s
視程10km以上
全天の4割程度の雲 雲底高度 550m
17日13時 GMT ~ 18日10時 GMT に一時的に
全天の8割程度の雲 雲底高度 370m
17日14時 GMT ~ 17日24時 GMT に 確率 40% で一時的に
視程8000m
天気現象弱い雨霧雨
18日3時 GMT ~ 18日10時 GMT に 確率 40% で一時的に
視程6000m
全天の8割程度の雲 雲底高度 180m
18日10時 GMT ~ 18日18時 GMT に一時的に
視程6000m
天気現象しゅう雨
全天の8割程度の雲 雲底高度 370m
TAF EGLL 171050Z 1712/1818 20008KT 9999 SCT018
TEMPO 1713/1810 BKN012
PROB40 TEMPO 1714/1724 8000 -RADZ
PROB40 TEMPO 1803/1810 6000 BKN006
TEMPO 1810/1818 6000 SHRA BKN012